createdAt,value
2023-04-18T00:00:51.068Z,118.58
2023-04-18T00:01:50.989Z,117.91
2023-04-18T00:02:51.147Z,117.00
2023-04-18T00:03:51.146Z,116.91
2023-04-18T00:04:51.038Z,116.91
2023-04-18T00:05:50.989Z,115.13
2023-04-18T00:06:50.995Z,115.29
2023-04-18T00:07:50.903Z,114.65
2023-04-18T00:08:50.949Z,114.50
2023-04-18T00:09:50.927Z,114.03
2023-04-18T00:10:50.916Z,114.10
2023-04-18T00:11:50.856Z,112.64
2023-04-18T00:12:50.888Z,111.73
2023-04-18T00:13:50.896Z,112.10
2023-04-18T00:14:50.896Z,110.76
2023-04-18T00:15:50.906Z,111.58
2023-04-18T00:16:51.552Z,112.41
2023-04-18T00:17:50.884Z,113.02
2023-04-18T00:18:50.806Z,112.56
2023-04-18T00:19:50.878Z,112.64
2023-04-18T00:20:50.811Z,113.95
2023-04-18T00:21:50.773Z,114.42
2023-04-18T00:22:50.760Z,114.34
2023-04-18T00:23:50.761Z,114.18
2023-04-18T00:24:50.795Z,114.26
2023-04-18T00:25:50.857Z,114.89
2023-04-18T00:26:50.778Z,118.16
2023-04-18T00:27:50.804Z,119.09
2023-04-18T00:28:50.707Z,119.95
2023-04-18T00:29:50.730Z,120.12
2023-04-18T00:30:50.742Z,119.95
2023-04-18T00:31:50.705Z,119.09
2023-04-18T00:32:50.716Z,119.95
2023-04-18T00:33:50.673Z,119.18
2023-04-18T00:34:50.710Z,119.00
2023-04-18T00:35:50.648Z,117.41
2023-04-18T00:36:50.630Z,117.82
2023-04-18T00:37:50.627Z,116.01
2023-04-18T00:38:50.592Z,116.10
2023-04-18T00:39:50.619Z,115.85
2023-04-18T00:40:50.587Z,118.07
2023-04-18T00:41:50.592Z,118.50
2023-04-18T00:42:50.563Z,119.69
2023-04-18T00:43:50.624Z,120.21
2023-04-18T00:44:50.561Z,120.30
2023-04-18T00:45:50.569Z,120.73
2023-04-18T00:46:50.518Z,121.62
2023-04-18T00:47:50.605Z,120.64
2023-04-18T00:48:50.499Z,120.91
2023-04-18T00:49:50.539Z,121.26
2023-04-18T00:50:50.525Z,121.53
2023-04-18T00:51:50.520Z,122.51
2023-04-18T00:52:50.556Z,125.19
2023-04-18T00:53:50.494Z,126.71
2023-04-18T00:54:50.433Z,125.38
2023-04-18T00:55:50.484Z,123.79
2023-04-18T00:56:50.472Z,125.47
2023-04-18T00:57:50.454Z,126.04
2023-04-18T00:58:50.400Z,127.49
2023-04-18T00:59:50.388Z,128.88
2023-04-18T01:00:50.410Z,128.78
2023-04-18T01:01:50.427Z,130.29
2023-04-18T01:02:50.453Z,131.11
2023-04-18T01:03:50.539Z,132.26
2023-04-18T01:04:56.924Z,132.15
2023-04-18T01:05:50.345Z,133.32
2023-04-18T01:06:50.341Z,133.96
2023-04-18T01:07:50.325Z,134.18
2023-04-18T01:08:50.343Z,133.96
2023-04-18T01:09:50.365Z,132.89
2023-04-18T01:10:50.389Z,134.07
2023-04-18T01:11:50.288Z,131.42
2023-04-18T01:12:50.260Z,134.40
2023-04-18T01:13:50.387Z,136.61
2023-04-18T01:14:50.228Z,139.12
2023-04-18T01:15:50.315Z,140.65
2023-04-18T01:16:50.246Z,139.59
2023-04-18T01:17:50.350Z,139.01
2023-04-18T01:18:50.272Z,138.20
2023-04-18T01:19:50.229Z,136.83
2023-04-18T01:20:50.234Z,137.06
2023-04-18T01:21:50.249Z,135.38
2023-04-18T01:22:50.161Z,135.05
2023-04-18T01:23:50.161Z,133.00
2023-04-18T01:24:50.226Z,132.79
2023-04-18T01:25:50.163Z,131.74
2023-04-18T01:26:50.213Z,132.36
2023-04-18T01:27:50.151Z,130.49
2023-04-18T01:28:50.135Z,129.88
2023-04-18T01:29:50.079Z,130.39
2023-04-18T01:30:50.102Z,133.11
2023-04-18T01:31:50.230Z,136.94
2023-04-18T01:32:50.103Z,136.94
2023-04-18T01:33:50.037Z,135.05
2023-04-18T01:34:50.067Z,132.47
2023-04-18T01:35:50.040Z,132.36
2023-04-18T01:36:50.041Z,133.75
2023-04-18T01:37:50.074Z,135.27
2023-04-18T01:38:49.976Z,135.16
2023-04-18T01:39:49.973Z,136.61
2023-04-18T01:40:50.075Z,136.83
2023-04-18T01:41:49.973Z,137.28
2023-04-18T01:42:49.957Z,137.06
2023-04-18T01:43:50.026Z,136.38
2023-04-18T01:44:49.923Z,137.28
2023-04-18T01:45:49.911Z,139.59
2023-04-18T01:46:50.007Z,137.62
2023-04-18T01:47:49.958Z,138.54
2023-04-18T01:48:49.908Z,139.47
2023-04-18T01:49:49.871Z,140.29
2023-04-18T01:50:49.922Z,138.77
2023-04-18T01:51:49.886Z,139.01
2023-04-18T01:52:49.838Z,139.01
2023-04-18T01:53:49.884Z,139.24
2023-04-18T01:54:49.848Z,139.24
2023-04-18T01:55:49.879Z,139.24
2023-04-18T01:56:49.811Z,139.94
2023-04-18T01:57:49.882Z,138.08
2023-04-18T01:58:49.854Z,137.40
2023-04-18T01:59:49.785Z,137.40
2023-04-18T02:00:49.864Z,137.97
2023-04-18T02:01:49.839Z,138.08
2023-04-18T02:02:49.897Z,138.66
2023-04-18T02:03:50.003Z,139.01
2023-04-18T02:04:49.809Z,139.35
2023-04-18T02:05:49.767Z,138.54
2023-04-18T02:06:49.774Z,138.54
2023-04-18T02:07:49.714Z,139.94
2023-04-18T02:08:49.685Z,139.12
2023-04-18T02:09:49.675Z,139.82
2023-04-18T02:10:49.679Z,141.25
2023-04-18T02:11:49.676Z,143.69
2023-04-18T02:12:49.649Z,143.20
2023-04-18T02:13:49.686Z,143.07
2023-04-18T02:14:49.673Z,143.20
2023-04-18T02:15:49.633Z,144.44
2023-04-18T02:16:49.746Z,143.57
2023-04-18T02:17:49.631Z,142.34
2023-04-18T02:18:49.674Z,141.97
2023-04-18T02:19:49.595Z,143.32
2023-04-18T02:20:49.656Z,143.44
2023-04-18T02:21:49.620Z,142.46
2023-04-18T02:22:49.692Z,143.07
2023-04-18T02:23:49.551Z,143.44
2023-04-18T02:24:49.551Z,141.97
2023-04-18T02:25:49.553Z,141.25
2023-04-18T02:26:49.525Z,141.13
2023-04-18T02:27:49.498Z,139.82
2023-04-18T02:28:49.592Z,137.97
2023-04-18T02:29:49.513Z,138.31
2023-04-18T02:30:49.482Z,139.01
2023-04-18T02:31:49.503Z,138.54
2023-04-18T02:32:49.486Z,139.59
2023-04-18T02:33:49.476Z,138.89
2023-04-18T02:34:49.448Z,138.31
2023-04-18T02:35:49.456Z,137.74
2023-04-18T02:36:49.471Z,135.05
2023-04-18T02:37:49.408Z,133.86
2023-04-18T02:38:49.396Z,132.26
2023-04-18T02:39:49.424Z,132.36
2023-04-18T02:40:49.385Z,133.21
2023-04-18T02:41:49.394Z,133.11
2023-04-18T02:42:49.360Z,132.79
2023-04-18T02:43:49.343Z,131.42
2023-04-18T02:44:49.329Z,131.32
2023-04-18T02:45:49.389Z,132.15
2023-04-18T02:46:49.414Z,132.68
2023-04-18T02:47:55.181Z,131.94
2023-04-18T02:48:49.353Z,130.39
2023-04-18T02:49:49.352Z,130.19
2023-04-18T02:50:49.342Z,130.09
2023-04-18T02:51:49.317Z,128.78
2023-04-18T02:52:49.276Z,127.20
2023-04-18T02:53:49.289Z,126.91
2023-04-18T02:54:49.332Z,125.95
2023-04-18T02:55:49.246Z,127.79
2023-04-18T02:56:49.258Z,129.48
2023-04-18T02:57:49.214Z,130.19
2023-04-18T02:58:49.278Z,132.26
2023-04-18T02:59:49.188Z,132.47
2023-04-18T03:00:49.208Z,133.53
2023-04-18T03:01:49.320Z,132.89
2023-04-18T03:02:49.320Z,132.26
2023-04-18T03:03:49.195Z,132.36
2023-04-18T03:04:49.186Z,130.80
2023-04-18T03:05:49.128Z,130.49
2023-04-18T03:06:49.130Z,131.32
2023-04-18T03:07:49.125Z,131.84
2023-04-18T03:08:49.122Z,129.98
2023-04-18T03:09:49.108Z,127.88
2023-04-18T03:10:49.081Z,128.38
2023-04-18T03:11:49.073Z,126.81
2023-04-18T03:12:49.048Z,124.25
2023-04-18T03:13:49.074Z,123.06
2023-04-18T03:14:49.044Z,122.33
2023-04-18T03:15:49.063Z,122.15
2023-04-18T03:16:49.044Z,121.44
2023-04-18T03:17:49.161Z,123.70
2023-04-18T03:18:48.996Z,123.33
2023-04-18T03:19:49.042Z,123.51
2023-04-18T03:20:48.960Z,122.88
2023-04-18T03:21:48.960Z,123.61
2023-04-18T03:22:49.005Z,123.61
2023-04-18T03:23:49.036Z,123.88
2023-04-18T03:24:48.926Z,124.53
2023-04-18T03:25:48.925Z,124.53
2023-04-18T03:26:49.006Z,124.25
2023-04-18T03:27:48.905Z,122.15
2023-04-18T03:28:48.900Z,121.26
2023-04-18T03:29:48.878Z,120.64
2023-04-18T03:30:48.879Z,120.30
2023-04-18T03:31:48.963Z,120.64
2023-04-18T03:32:48.919Z,121.08
2023-04-18T03:33:48.890Z,122.33
2023-04-18T03:34:48.903Z,122.24
2023-04-18T03:35:48.825Z,123.61
2023-04-18T03:36:48.805Z,124.35
2023-04-18T03:37:48.815Z,125.00
2023-04-18T03:38:48.858Z,126.23
2023-04-18T03:39:48.827Z,127.59
2023-04-18T03:40:48.814Z,127.10
2023-04-18T03:41:48.890Z,126.71
2023-04-18T03:42:48.742Z,126.81
2023-04-18T03:43:48.752Z,126.62
2023-04-18T03:44:49.739Z,127.59
2023-04-18T03:45:48.784Z,125.95
2023-04-18T03:46:48.754Z,125.95
2023-04-18T03:47:48.729Z,125.66
2023-04-18T03:48:48.725Z,124.91
2023-04-18T03:49:48.672Z,124.81
2023-04-18T03:50:48.680Z,124.72
2023-04-18T03:51:48.684Z,122.51
2023-04-18T03:52:48.659Z,122.51
2023-04-18T03:53:48.651Z,122.96
2023-04-18T03:54:48.652Z,121.35
2023-04-18T03:55:48.607Z,121.26
2023-04-18T03:56:48.638Z,121.26
2023-04-18T03:57:48.684Z,120.04
2023-04-18T03:58:48.589Z,120.38
2023-04-18T03:59:48.606Z,120.21
2023-04-18T04:00:48.515Z,119.95
2023-04-18T04:01:48.601Z,120.38
2023-04-18T04:02:48.706Z,120.47
2023-04-18T04:03:48.734Z,120.12
2023-04-18T04:04:48.509Z,119.09
2023-04-18T04:05:48.488Z,119.43
2023-04-18T04:06:48.456Z,117.82
2023-04-18T04:07:48.541Z,116.58
2023-04-18T04:08:48.448Z,115.05
2023-04-18T04:09:48.460Z,114.50
2023-04-18T04:10:48.420Z,113.95
2023-04-18T04:11:48.413Z,112.10
2023-04-18T04:12:48.409Z,111.06
2023-04-18T04:13:48.388Z,109.52
2023-04-18T04:14:48.410Z,110.03
2023-04-18T04:15:48.396Z,110.39
2023-04-18T04:16:48.431Z,110.68
2023-04-18T04:17:48.352Z,110.91
2023-04-18T04:18:48.378Z,110.98
2023-04-18T04:19:48.424Z,110.03
2023-04-18T04:20:48.350Z,109.81
2023-04-18T04:21:48.336Z,109.95
2023-04-18T04:22:48.343Z,108.73
2023-04-18T04:23:48.305Z,107.81
2023-04-18T04:24:48.327Z,107.33
2023-04-18T04:25:48.321Z,106.78
2023-04-18T04:26:48.320Z,106.36
2023-04-18T04:27:48.260Z,105.82
2023-04-18T04:28:48.234Z,106.84
2023-04-18T04:29:48.263Z,107.88
2023-04-18T04:30:48.208Z,108.80
2023-04-18T04:31:48.219Z,108.73
2023-04-18T04:32:48.225Z,107.74
2023-04-18T04:33:48.190Z,107.67
2023-04-18T04:34:48.186Z,107.81
2023-04-18T04:35:48.159Z,107.33
2023-04-18T04:36:48.179Z,106.71
2023-04-18T04:37:48.270Z,106.16
2023-04-18T04:38:48.135Z,107.33
2023-04-18T04:39:48.124Z,107.47
2023-04-18T04:40:48.112Z,108.17
2023-04-18T04:41:48.263Z,109.16
2023-04-18T04:42:48.122Z,110.46
2023-04-18T04:43:48.089Z,110.17
2023-04-18T04:44:48.127Z,109.74
2023-04-18T04:45:48.085Z,109.81
2023-04-18T04:46:48.086Z,110.39
2023-04-18T04:47:48.078Z,112.03
2023-04-18T04:48:48.044Z,111.58
2023-04-18T04:49:48.025Z,112.33
2023-04-18T04:50:48.030Z,113.33
2023-04-18T04:51:48.086Z,114.26
2023-04-18T04:52:48.030Z,114.18
2023-04-18T04:53:48.003Z,115.69
2023-04-18T04:54:47.968Z,115.93
2023-04-18T04:55:48.032Z,114.34
2023-04-18T04:56:47.997Z,114.18
2023-04-18T04:57:48.001Z,113.87
2023-04-18T04:58:47.934Z,114.10
2023-04-18T04:59:47.913Z,113.79
2023-04-18T05:00:47.952Z,113.64
2023-04-18T05:01:47.917Z,112.25
2023-04-18T05:02:48.105Z,109.16
2023-04-18T05:03:48.131Z,107.12
2023-04-18T05:04:47.966Z,102.94
2023-04-18T05:05:47.942Z,98.08
2023-04-18T05:06:47.882Z,96.94
2023-04-18T05:07:47.851Z,95.88
2023-04-18T05:08:47.905Z,94.64
2023-04-18T05:09:47.924Z,92.74
2023-04-18T05:10:47.928Z,90.51
2023-04-18T05:11:47.949Z,88.87
2023-04-18T05:12:47.838Z,88.68
2023-04-18T05:13:47.977Z,89.73
2023-04-18T05:14:47.769Z,92.12
2023-04-18T05:15:47.813Z,92.63
2023-04-18T05:16:47.805Z,91.81
2023-04-18T05:17:47.795Z,90.61
2023-04-18T05:18:47.739Z,89.06
2023-04-18T05:19:47.725Z,88.02
2023-04-18T05:20:47.808Z,87.28
2023-04-18T05:21:47.692Z,87.47
2023-04-18T05:22:47.748Z,88.96
2023-04-18T05:23:47.704Z,90.02
2023-04-18T05:24:47.697Z,90.81
2023-04-18T05:25:47.659Z,92.74
2023-04-18T05:26:47.750Z,93.99
2023-04-18T05:27:47.643Z,94.74
2023-04-18T05:28:47.629Z,94.51
2023-04-18T05:29:47.663Z,95.11
2023-04-18T05:30:47.671Z,96.94
2023-04-18T05:31:47.760Z,97.28
2023-04-18T05:32:47.637Z,97.05
2023-04-18T05:33:47.603Z,97.45
2023-04-18T05:34:47.608Z,99.02
2023-04-18T05:35:47.572Z,98.78
2023-04-18T05:36:47.633Z,98.96
2023-04-18T05:37:47.707Z,97.85
2023-04-18T05:38:47.587Z,97.62
2023-04-18T05:39:47.519Z,100.64
2023-04-18T05:40:47.523Z,99.25
2023-04-18T05:41:47.558Z,99.73
2023-04-18T05:42:47.543Z,100.45
2023-04-18T05:44:01.788Z,101.62
2023-04-18T05:44:47.614Z,99.85
2023-04-18T05:45:47.531Z,100.57
2023-04-18T05:46:47.495Z,102.06
2023-04-18T05:47:47.520Z,103.07
2023-04-18T05:48:47.463Z,103.20
2023-04-18T05:49:47.487Z,104.30
2023-04-18T05:50:47.469Z,105.96
2023-04-18T05:51:47.408Z,107.54
2023-04-18T05:52:47.436Z,108.17
2023-04-18T05:53:47.407Z,109.81
2023-04-18T05:54:47.473Z,112.33
2023-04-18T05:55:47.471Z,113.95
2023-04-18T05:56:47.382Z,113.95
2023-04-18T05:57:47.361Z,115.93
2023-04-18T05:58:47.353Z,117.82
2023-04-18T05:59:47.448Z,118.83
2023-04-18T06:00:47.366Z,121.44
2023-04-18T06:01:47.356Z,124.62
2023-04-18T06:02:47.493Z,127.59
2023-04-18T06:03:47.602Z,130.39
2023-04-18T06:04:47.400Z,128.88
2023-04-18T06:05:47.400Z,131.01
2023-04-18T06:06:47.301Z,131.84
2023-04-18T06:07:47.279Z,133.11
2023-04-18T06:08:47.261Z,134.07
2023-04-18T06:09:47.229Z,134.83
2023-04-18T06:10:47.250Z,135.27
2023-04-18T06:11:47.253Z,135.16
2023-04-18T06:12:47.250Z,135.94
2023-04-18T06:13:47.244Z,138.20
2023-04-18T06:14:47.210Z,141.01
2023-04-18T06:15:47.193Z,142.58
2023-04-18T06:16:47.159Z,145.45
2023-04-18T06:17:47.256Z,146.73
2023-04-18T06:18:47.174Z,148.30
2023-04-18T06:19:47.166Z,149.91
2023-04-18T06:20:47.164Z,151.83
2023-04-18T06:21:47.129Z,152.38
2023-04-18T06:22:47.100Z,152.52
2023-04-18T06:23:47.120Z,151.96
2023-04-18T06:24:47.103Z,153.51
2023-04-18T06:25:47.129Z,155.52
2023-04-18T06:26:47.331Z,156.10
2023-04-18T06:27:47.174Z,156.10
2023-04-18T06:28:47.085Z,155.81
2023-04-18T06:29:47.050Z,154.22
2023-04-18T06:30:47.057Z,154.94
2023-04-18T06:31:47.068Z,154.36
2023-04-18T06:32:47.065Z,158.18
2023-04-18T06:33:46.981Z,159.24
2023-04-18T06:34:46.975Z,159.09
2023-04-18T06:35:46.980Z,158.48
2023-04-18T06:36:46.992Z,157.43
2023-04-18T06:37:46.983Z,156.25
2023-04-18T06:38:47.066Z,147.78
2023-04-18T06:39:47.086Z,144.57
2023-04-18T06:40:47.018Z,142.46
2023-04-18T06:41:46.948Z,143.44
2023-04-18T06:42:46.934Z,142.83
2023-04-18T06:44:02.132Z,133.75
2023-04-18T06:44:47.522Z,126.43
2023-04-18T06:45:47.097Z,122.96
2023-04-18T06:46:46.859Z,122.60
2023-04-18T06:47:46.904Z,122.42
2023-04-18T06:48:47.134Z,121.35
2023-04-18T06:49:46.886Z,122.88
2023-04-18T06:50:46.881Z,122.15
2023-04-18T06:51:46.830Z,123.06
2023-04-18T06:52:46.791Z,122.69
2023-04-18T06:53:46.890Z,123.15
2023-04-18T06:54:46.930Z,120.73
2023-04-18T06:55:46.804Z,120.04
2023-04-18T06:56:46.774Z,117.74
2023-04-18T06:57:46.769Z,116.10
2023-04-18T06:58:46.781Z,111.50
2023-04-18T06:59:46.937Z,110.10
2023-04-18T07:00:46.815Z,109.81
2023-04-18T07:01:46.776Z,109.23
2023-04-18T07:02:46.908Z,107.33
2023-04-18T07:03:46.767Z,107.05
2023-04-18T07:04:46.799Z,106.64
2023-04-18T07:05:46.686Z,106.98
2023-04-18T07:06:46.677Z,107.81
2023-04-18T07:07:46.684Z,108.66
2023-04-18T07:08:46.671Z,112.03
2023-04-18T07:09:46.672Z,114.58
2023-04-18T07:10:46.603Z,117.82
2023-04-18T07:11:46.630Z,119.09
2023-04-18T07:12:46.613Z,119.52
2023-04-18T07:13:46.702Z,118.83
2023-04-18T07:14:46.602Z,116.26
2023-04-18T07:15:46.563Z,117.57
2023-04-18T07:16:46.645Z,119.26
2023-04-18T07:17:46.745Z,117.99
2023-04-18T07:18:46.537Z,117.99
2023-04-18T07:19:46.575Z,118.75
2023-04-18T07:20:46.519Z,117.32
2023-04-18T07:21:46.482Z,118.83
2023-04-18T07:22:46.580Z,120.04
2023-04-18T07:23:46.497Z,123.79
2023-04-18T07:24:46.485Z,124.16
2023-04-18T07:25:46.655Z,124.72
2023-04-18T07:26:46.521Z,126.81
2023-04-18T07:27:46.573Z,128.38
2023-04-18T07:28:46.479Z,129.48
2023-04-18T07:29:46.424Z,130.39
2023-04-18T07:30:46.458Z,129.68
2023-04-18T07:31:46.461Z,132.26
2023-04-18T07:32:46.485Z,137.74
2023-04-18T07:33:46.394Z,137.06
2023-04-18T07:34:46.415Z,137.40
2023-04-18T07:35:46.347Z,140.06
2023-04-18T07:36:46.381Z,142.70
2023-04-18T07:37:46.395Z,143.81
2023-04-18T07:38:46.376Z,137.51
2023-04-18T07:39:46.350Z,137.62
2023-04-18T07:40:46.420Z,139.24
2023-04-18T07:41:46.424Z,134.51
2023-04-18T07:42:46.439Z,140.65
2023-04-18T07:43:46.283Z,145.96
2023-04-18T07:44:46.289Z,147.91
2023-04-18T07:45:46.254Z,151.00
2023-04-18T07:46:46.349Z,150.18
2023-04-18T07:47:46.255Z,144.31
2023-04-18T07:48:46.247Z,144.44
2023-04-18T07:49:46.249Z,143.20
2023-04-18T07:50:46.257Z,145.45
2023-04-18T07:51:46.286Z,154.51
2023-04-18T07:52:46.190Z,161.88
2023-04-18T07:53:46.205Z,167.09
2023-04-18T07:54:46.187Z,172.82
2023-04-18T07:55:46.170Z,173.36
2023-04-18T07:56:46.269Z,178.00
2023-04-18T07:57:47.498Z,178.57
2023-04-18T07:58:46.169Z,169.82
2023-04-18T07:59:46.133Z,168.78
2023-04-18T08:00:46.168Z,171.39
2023-04-18T08:01:46.121Z,178.19
2023-04-18T08:02:46.173Z,174.45
2023-04-18T08:03:46.153Z,173.36
2023-04-18T08:04:46.611Z,177.43
2023-04-18T08:05:46.084Z,179.54
2023-04-18T08:06:46.060Z,180.71
2023-04-18T08:07:46.096Z,184.93
2023-04-18T08:08:46.020Z,193.92
2023-04-18T08:09:46.051Z,202.70
2023-04-18T08:10:46.011Z,198.15
2023-04-18T08:11:46.050Z,190.75
2023-04-18T08:12:46.004Z,184.72
2023-04-18T08:13:46.050Z,178.57
2023-04-18T08:14:46.039Z,176.30
2023-04-18T08:15:46.054Z,173.90
2023-04-18T08:16:46.072Z,164.28
2023-04-18T08:17:45.970Z,152.80
2023-04-18T08:18:46.011Z,153.08
2023-04-18T08:19:45.916Z,161.88
2023-04-18T08:20:46.010Z,168.10
2023-04-18T08:21:45.973Z,174.08
2023-04-18T08:23:02.071Z,176.86
2023-04-18T08:23:45.915Z,177.05
2023-04-18T08:25:01.122Z,177.05
2023-04-18T08:25:45.921Z,180.90
2023-04-18T08:26:45.856Z,184.82
2023-04-18T08:27:45.844Z,193.46
2023-04-18T08:28:46.655Z,203.32
2023-04-18T08:29:45.924Z,213.14
2023-04-18T08:30:45.856Z,231.23
2023-04-18T08:31:45.884Z,244.91
2023-04-18T08:32:46.019Z,253.46
2023-04-18T08:33:45.839Z,259.49
2023-04-18T08:34:45.768Z,261.36
2023-04-18T08:35:45.850Z,265.39
2023-04-18T08:36:45.806Z,271.12
2023-04-18T08:37:45.791Z,277.09
2023-04-18T08:38:45.816Z,280.42
2023-04-18T08:39:45.733Z,289.87
2023-04-18T08:40:45.798Z,300.53
2023-04-18T08:41:45.760Z,310.52
2023-04-18T08:42:45.687Z,321.83
2023-04-18T08:43:45.701Z,325.68
2023-04-18T08:44:45.720Z,324.39
2023-04-18T08:45:45.705Z,336.06
2023-04-18T08:46:45.728Z,340.61
2023-04-18T08:47:45.756Z,346.39
2023-04-18T08:48:45.713Z,358.55
2023-04-18T08:49:45.617Z,366.18
2023-04-18T08:50:45.673Z,374.57
2023-04-18T08:51:45.718Z,381.36
2023-04-18T08:52:45.608Z,391.02
2023-04-18T08:53:45.671Z,387.59
2023-04-18T08:54:45.718Z,388.50
2023-04-18T08:55:45.579Z,390.33
2023-04-18T08:56:45.601Z,378.91
2023-04-18T08:57:45.524Z,369.07
2023-04-18T08:58:45.610Z,382.46
2023-04-18T08:59:47.090Z,404.59
2023-04-18T09:00:45.709Z,431.39
2023-04-18T09:01:45.547Z,464.57
2023-04-18T09:02:45.578Z,486.69
2023-04-18T09:03:45.558Z,503.67
2023-04-18T09:04:45.494Z,505.97
2023-04-18T09:05:45.589Z,508.29
2023-04-18T09:06:45.531Z,511.81
2023-04-18T09:07:45.476Z,525.58
2023-04-18T09:08:45.444Z,542.31
2023-04-18T09:09:45.403Z,551.32
2023-04-18T09:10:46.840Z,567.81
2023-04-18T09:11:45.522Z,593.16
2023-04-18T09:12:45.383Z,632.70
2023-04-18T09:13:45.539Z,649.40
2023-04-18T09:14:45.343Z,640.63
2023-04-18T09:15:45.389Z,633.91
2023-04-18T09:16:45.414Z,619.14
2023-04-18T09:17:45.357Z,615.12
2023-04-18T09:18:45.366Z,619.14
2023-04-18T09:19:45.491Z,610.60
2023-04-18T09:20:45.305Z,609.48
2023-04-18T09:21:45.417Z,610.04
2023-04-18T09:22:45.364Z,596.89
2023-04-18T09:23:45.288Z,593.69
2023-04-18T09:24:45.319Z,578.69
2023-04-18T09:25:45.684Z,554.07
2023-04-18T09:26:45.228Z,522.28
2023-04-18T09:27:45.250Z,436.49
2023-04-18T09:28:45.316Z,413.14
2023-04-18T09:29:45.213Z,386.92
2023-04-18T09:30:45.284Z,400.20
2023-04-18T09:31:45.339Z,437.93
2023-04-18T09:32:45.523Z,399.96
2023-04-18T09:33:45.204Z,390.79
2023-04-18T09:34:45.219Z,404.83
2023-04-18T09:35:45.169Z,395.67
2023-04-18T09:36:45.210Z,374.14
2023-04-18T09:37:45.130Z,355.81
2023-04-18T09:38:45.139Z,342.76
2023-04-18T09:39:45.310Z,360.52
2023-04-18T09:40:45.151Z,378.47
2023-04-18T09:41:45.145Z,377.60
2023-04-18T09:42:45.115Z,378.91
2023-04-18T09:43:45.101Z,421.27
2023-04-18T09:44:45.953Z,482.45
2023-04-18T09:45:45.378Z,480.36
2023-04-18T09:46:47.194Z,489.56
2023-04-18T09:47:45.071Z,506.74
2023-04-18T09:48:45.062Z,506.74
2023-04-18T09:49:45.058Z,519.01
2023-04-18T09:50:45.072Z,582.75
2023-04-18T09:51:45.056Z,576.18
2023-04-18T09:52:44.967Z,537.49
2023-04-18T09:53:45.125Z,550.40
2023-04-18T09:54:47.704Z,579.70
2023-04-18T09:55:44.975Z,546.78
2023-04-18T09:56:45.042Z,557.80
2023-04-18T09:57:45.067Z,542.31
2023-04-18T09:58:44.940Z,533.60
2023-04-18T09:59:44.936Z,532.32
2023-04-18T10:00:46.811Z,517.80
2023-04-18T10:01:44.924Z,495.03
2023-04-18T10:02:45.012Z,506.35
2023-04-18T10:03:45.000Z,550.86
2023-04-18T10:04:44.918Z,565.87
2023-04-18T10:05:44.973Z,577.18
2023-04-18T10:06:44.998Z,491.37
2023-04-18T10:07:44.810Z,450.40
2023-04-18T10:08:44.918Z,451.01
2023-04-18T10:09:44.884Z,427.50
2023-04-18T10:10:44.843Z,463.27
2023-04-18T10:11:44.846Z,446.16
2023-04-18T10:12:44.763Z,438.51
2023-04-18T10:13:44.835Z,432.23
2023-04-18T10:14:44.729Z,430.83
2023-04-18T10:15:45.379Z,385.79
2023-04-18T10:16:44.789Z,403.12
2023-04-18T10:17:56.034Z,386.47
2023-04-18T10:18:44.733Z,415.47
2023-04-18T10:19:44.718Z,421.80
2023-04-18T10:20:44.684Z,410.84
2023-04-18T10:21:44.700Z,449.48
2023-04-18T10:22:44.803Z,413.66
2023-04-18T10:23:44.663Z,440.54
2023-04-18T10:24:44.704Z,473.51
2023-04-18T10:25:44.659Z,464.57
2023-04-18T10:26:44.640Z,427.23
2023-04-18T10:27:44.622Z,430.27
2023-04-18T10:28:45.940Z,460.39
2023-04-18T10:29:44.693Z,433.36
2023-04-18T10:30:44.707Z,422.07
2023-04-18T10:31:44.650Z,415.47
2023-04-18T10:32:44.645Z,446.16
2023-04-18T10:33:49.619Z,461.02
2023-04-18T10:34:44.677Z,499.50
2023-04-18T10:35:44.558Z,509.07
2023-04-18T10:36:44.544Z,517.40
2023-04-18T10:37:44.504Z,523.92
2023-04-18T10:38:44.585Z,537.92
2023-04-18T10:39:44.480Z,540.55
2023-04-18T10:40:44.540Z,526.83
2023-04-18T10:41:44.492Z,526.41
2023-04-18T10:42:44.447Z,559.21
2023-04-18T10:43:44.486Z,605.04
2023-04-18T10:44:44.554Z,660.37
2023-04-18T10:45:44.425Z,730.04
2023-04-18T10:46:44.466Z,809.99
2023-04-18T10:47:44.577Z,837.53
2023-04-18T10:48:44.384Z,870.42
2023-04-18T10:49:44.389Z,922.33
2023-04-18T10:50:44.399Z,981.55
2023-04-18T10:51:44.403Z,1043.96
2023-04-18T10:52:44.395Z,1053.05
2023-04-18T10:53:44.347Z,1056.39
2023-04-18T10:54:44.396Z,1019.16
2023-04-18T10:55:44.344Z,1052.21
2023-04-18T10:56:44.341Z,1006.81
2023-04-18T10:57:44.338Z,964.47
2023-04-18T10:58:44.354Z,899.86
2023-04-18T10:59:44.287Z,880.79
2023-04-18T11:00:44.379Z,869.85
2023-04-18T11:01:44.304Z,797.84
2023-04-18T11:02:44.330Z,763.05
2023-04-18T11:03:44.343Z,741.45
2023-04-18T11:04:44.218Z,770.57
2023-04-18T11:05:44.273Z,727.64
2023-04-18T11:06:44.310Z,715.11
2023-04-18T11:07:44.206Z,715.11
2023-04-18T11:08:44.279Z,721.32
2023-04-18T11:09:45.483Z,721.32
2023-04-18T11:10:44.191Z,749.72
2023-04-18T11:11:44.184Z,794.50
2023-04-18T11:12:44.206Z,794.03
2023-04-18T11:13:44.187Z,804.60
2023-04-18T11:14:44.165Z,810.97
2023-04-18T11:15:44.148Z,802.17
2023-04-18T11:16:44.193Z,741.45
2023-04-18T11:17:44.211Z,712.04
2023-04-18T11:18:44.094Z,728.44
2023-04-18T11:19:44.344Z,709.00
2023-04-18T11:20:44.177Z,665.00
2023-04-18T11:21:44.076Z,655.81
2023-04-18T11:22:44.055Z,680.67
2023-04-18T11:23:44.056Z,720.54
2023-04-18T11:24:44.078Z,679.28
2023-04-18T11:25:44.130Z,709.00
2023-04-18T11:26:44.024Z,738.97
2023-04-18T11:27:44.068Z,761.74
2023-04-18T11:28:43.999Z,796.88
2023-04-18T11:29:43.972Z,840.18
2023-04-18T11:30:43.976Z,872.13
2023-04-18T11:31:44.101Z,924.90
2023-04-18T11:32:43.967Z,930.72
2023-04-18T11:33:43.962Z,947.29
2023-04-18T11:34:43.930Z,957.52
2023-04-18T11:35:43.923Z,952.72
2023-04-18T11:36:43.928Z,951.36
2023-04-18T11:37:43.938Z,956.15
2023-04-18T11:38:43.906Z,970.80
2023-04-18T11:39:43.906Z,977.22
2023-04-18T11:40:43.894Z,991.80
2023-04-18T11:41:43.865Z,962.37
2023-04-18T11:42:43.873Z,943.93
2023-04-18T11:43:43.940Z,924.90
2023-04-18T11:44:43.882Z,898.04
2023-04-18T11:45:43.844Z,875.58
2023-04-18T11:46:43.860Z,839.12
2023-04-18T11:47:43.945Z,809.49
2023-04-18T11:48:43.862Z,824.04
2023-04-18T11:49:43.779Z,853.11
2023-04-18T11:50:43.820Z,853.66
2023-04-18T11:51:43.762Z,849.30
2023-04-18T11:52:43.808Z,863.08
2023-04-18T11:53:43.776Z,857.51
2023-04-18T11:54:43.746Z,841.24
2023-04-18T11:55:43.761Z,827.11
2023-04-18T11:56:43.703Z,805.08
2023-04-18T11:57:43.738Z,795.45
2023-04-18T11:58:43.674Z,826.60
2023-04-18T11:59:43.707Z,862.52
2023-04-18T12:00:43.692Z,872.13
2023-04-18T12:01:43.672Z,883.13
2023-04-18T12:02:43.845Z,894.42
2023-04-18T12:03:43.801Z,941.93
2023-04-18T12:04:43.789Z,942.59
2023-04-18T12:05:43.827Z,924.90
2023-04-18T12:06:43.654Z,930.07
2023-04-18T12:07:43.590Z,950.68
2023-04-18T12:08:43.684Z,965.87
2023-04-18T12:09:43.575Z,963.77
2023-04-18T12:10:43.570Z,981.55
2023-04-18T12:11:43.568Z,1009.10
2023-04-18T12:12:43.533Z,1025.44
2023-04-18T12:13:43.604Z,1070.85
2023-04-18T12:14:43.548Z,1064.00
2023-04-18T12:15:43.559Z,1039.06
2023-04-18T12:16:43.528Z,1007.58
2023-04-18T12:17:43.556Z,980.83
2023-04-18T12:18:43.470Z,1009.87
2023-04-18T12:19:43.461Z,1050.55
2023-04-18T12:20:43.458Z,1100.08
2023-04-18T12:21:43.516Z,1114.84
2023-04-18T12:22:43.444Z,1100.08
2023-04-18T12:23:43.416Z,1107.41
2023-04-18T12:24:43.430Z,1129.99
2023-04-18T12:25:43.389Z,1137.72
2023-04-18T12:26:43.407Z,1188.56
2023-04-18T12:27:43.397Z,1181.17
2023-04-18T12:28:43.377Z,1198.20